Terminal Aerodrome Forecast
Issued by NWS Detroit/Pontiac, MI

Home | Current Version | Previous Version | Text Only | Print | Product List | Glossary On
Versions: 1 2 3 4 5 6 7 8 9 10 11 12 13 14 15 16 17 18 19 20 21 22 23 24 25 26 27 28 29 30
611
FTUS43 KDTX 281520 AAC
TAFDTW
TAF AMD
KDTW 281520Z 2815/2918 13008G15KT 6SM -SHRA BKN050 OVC080
      TEMPO 2815/2816 4SM RA BR OVC050
     FM281600 15010G20KT P6SM -SHRA OVC060
     FM281800 15010G20KT 4SM SHRA OVC050
     FM282100 10008KT 6SM -SHRA OVC045
     FM290800 06010KT 4SM -SHRA BR OVC012
     FM291400 03012KT 4SM -SHRA BR OVC035=

USA.gov is the U.S. government's official web portal to all federal, state and local government web resources and services.